createdAt,value
2016-02-23T00:00:02.872Z,61.61
2016-02-23T00:01:02.875Z,62.56
2016-02-23T00:02:02.878Z,62.56
2016-02-23T00:03:02.881Z,61.51
2016-02-23T00:04:02.883Z,61.9
2016-02-23T00:05:02.878Z,61.13
2016-02-23T00:06:02.881Z,61.42
2016-02-23T00:07:02.884Z,61.51
2016-02-23T00:08:02.886Z,62.27
2016-02-23T00:09:02.890Z,61.7
2016-02-23T00:10:02.908Z,61.13
2016-02-23T00:11:02.879Z,61.61
2016-02-23T00:12:02.898Z,60.88
2016-02-23T00:13:02.900Z,61.83
2016-02-23T00:14:02.903Z,60.88
2016-02-23T00:15:02.905Z,60.88
2016-02-23T00:16:02.908Z,61.25
2016-02-23T00:17:02.911Z,61.07
2016-02-23T00:18:02.913Z,60.49
2016-02-23T00:19:02.932Z,60.69
2016-02-23T00:20:02.904Z,60.49
2016-02-23T00:21:02.907Z,60.59
2016-02-23T00:22:02.905Z,60.59
2016-02-23T00:23:02.897Z,60.78
2016-02-23T00:24:02.888Z,61.25
2016-02-23T00:25:02.879Z,60.97
2016-02-23T00:26:02.871Z,60.88
2016-02-23T00:27:02.865Z,60.88
2016-02-23T00:28:02.863Z,60.78
2016-02-23T00:29:02.846Z,60.49
2016-02-23T00:30:02.845Z,60.21
2016-02-23T00:31:02.844Z,60.4
2016-02-23T00:32:02.843Z,60.3
2016-02-23T00:33:02.844Z,60.49
2016-02-23T00:34:02.846Z,60.4
2016-02-23T00:35:02.848Z,60.49
2016-02-23T00:36:02.849Z,60.78
2016-02-23T00:37:02.850Z,60.97
2016-02-23T00:38:02.852Z,60.49
2016-02-23T00:39:02.870Z,60.49
2016-02-23T00:40:02.841Z,60.49
2016-02-23T00:41:02.858Z,60.4
2016-02-23T00:42:02.851Z,60.4
2016-02-23T00:43:02.854Z,60.59
2016-02-23T00:44:02.857Z,60.3
2016-02-23T00:45:02.844Z,60.4
2016-02-23T00:46:02.848Z,60.49
2016-02-23T00:47:02.850Z,61.35
2016-02-23T00:48:02.852Z,61.64
2016-02-23T00:49:02.856Z,60.59
2016-02-23T00:50:02.858Z,60.49
2016-02-23T00:51:02.875Z,60.4
2016-02-23T00:52:02.878Z,61.07
2016-02-23T00:53:02.866Z,60.4
2016-02-23T00:54:02.869Z,60.49
2016-02-23T00:55:02.872Z,60.4
2016-02-23T00:56:02.874Z,60.69
2016-02-23T00:57:02.877Z,60.4
2016-02-23T00:58:02.895Z,60.3
2016-02-23T00:59:02.882Z,60.59
2016-02-23T01:00:02.869Z,60.88
2016-02-23T01:01:02.888Z,60.21
2016-02-23T01:02:02.874Z,60.49
2016-02-23T01:03:02.877Z,60.49
2016-02-23T01:04:02.880Z,60.78
2016-02-23T01:05:02.882Z,60.88
2016-02-23T01:06:02.885Z,60.49
2016-02-23T01:07:02.888Z,60.4
2016-02-23T01:08:02.890Z,61.07
2016-02-23T01:09:02.893Z,60.88
2016-02-23T01:10:02.896Z,60.69
2016-02-23T01:11:02.898Z,60.78
2016-02-23T01:12:02.902Z,60.49
2016-02-23T01:13:02.935Z,60.59
2016-02-23T01:14:02.906Z,60.69
2016-02-23T01:15:02.925Z,60.3
2016-02-23T01:16:02.928Z,60.78
2016-02-23T01:17:02.915Z,60.88
2016-02-23T01:18:02.917Z,60.59
2016-02-23T01:19:02.920Z,60.69
2016-02-23T01:20:02.907Z,60.59
2016-02-23T01:21:02.926Z,60.52
2016-02-23T01:22:02.928Z,60.02
2016-02-23T01:23:02.915Z,60.62
2016-02-23T01:24:02.917Z,60.91
2016-02-23T01:25:02.921Z,60.52
2016-02-23T01:26:02.923Z,60.52
2016-02-23T01:27:02.925Z,60.81
2016-02-23T01:28:02.928Z,61
2016-02-23T01:29:02.931Z,60.43
2016-02-23T01:30:02.934Z,60.62
2016-02-23T01:31:02.936Z,60.81
2016-02-23T01:32:02.939Z,60.88
2016-02-23T01:33:02.927Z,61.16
2016-02-23T01:34:02.945Z,61.1
2016-02-23T01:35:02.932Z,61.16
2016-02-23T01:36:02.949Z,60.97
2016-02-23T01:37:02.938Z,60.81
2016-02-23T01:38:03.002Z,60.81
2016-02-23T01:39:02.943Z,60.91
2016-02-23T01:40:02.961Z,60.69
2016-02-23T01:41:02.963Z,61.48
2016-02-23T01:42:02.951Z,61.67
2016-02-23T01:43:02.954Z,61.57
2016-02-23T01:44:02.956Z,61.76
2016-02-23T01:45:02.943Z,61.67
2016-02-23T01:46:02.977Z,61.48
2016-02-23T01:47:02.948Z,61.48
2016-02-23T01:48:02.951Z,61.19
2016-02-23T01:49:02.970Z,61.76
2016-02-23T01:50:02.987Z,61.54
2016-02-23T01:51:03.037Z,61.67
2016-02-23T01:52:03.040Z,62.52
2016-02-23T01:53:02.980Z,62.15
2016-02-23T01:54:02.983Z,62.34
2016-02-23T01:55:03.001Z,62.34
2016-02-23T01:56:02.972Z,62.34
2016-02-23T01:57:02.976Z,62.05
2016-02-23T01:58:02.978Z,62.78
2016-02-23T01:59:02.980Z,62.43
2016-02-23T02:00:03.000Z,62.68
2016-02-23T02:01:03.002Z,62.34
2016-02-23T02:02:03.004Z,62.43
2016-02-23T02:03:03.007Z,62.34
2016-02-23T02:04:02.994Z,62.34
2016-02-23T02:05:03.013Z,62.3
2016-02-23T02:06:03.000Z,62.21
2016-02-23T02:07:03.002Z,62.81
2016-02-23T02:08:03.005Z,62.68
2016-02-23T02:09:03.008Z,62.34
2016-02-23T02:10:02.995Z,62.43
2016-02-23T02:11:02.997Z,62.91
2016-02-23T02:12:03.001Z,62.05
2016-02-23T02:13:03.003Z,62.68
2016-02-23T02:14:03.021Z,62.68
2016-02-23T02:15:03.009Z,62.59
2016-02-23T02:16:03.011Z,62.72
2016-02-23T02:17:03.014Z,62.81
2016-02-23T02:18:03.032Z,62.3
2016-02-23T02:19:03.019Z,62.72
2016-02-23T02:20:03.022Z,62.49
2016-02-23T02:21:03.009Z,62.88
2016-02-23T02:22:03.012Z,62.88
2016-02-23T02:23:03.014Z,62.3
2016-02-23T02:24:03.033Z,62.59
2016-02-23T02:25:03.036Z,62.88
2016-02-23T02:26:03.038Z,62.97
2016-02-23T02:27:03.025Z,62.88
2016-02-23T02:28:03.028Z,62.59
2016-02-23T02:29:03.030Z,63.07
2016-02-23T02:30:03.038Z,62.97
2016-02-23T02:31:03.041Z,63.07
2016-02-23T02:32:03.043Z,62.97
2016-02-23T02:33:03.046Z,62.59
2016-02-23T02:34:03.049Z,62.97
2016-02-23T02:35:03.051Z,62.59
2016-02-23T02:36:03.054Z,63.07
2016-02-23T02:37:03.072Z,63.07
2016-02-23T02:38:03.121Z,63.83
2016-02-23T02:39:03.141Z,63.92
2016-02-23T02:40:03.049Z,63.83
2016-02-23T02:41:03.051Z,63.64
2016-02-23T02:42:03.055Z,63.64
2016-02-23T02:43:03.073Z,63.54
2016-02-23T02:44:03.059Z,63.83
2016-02-23T02:45:03.062Z,64.02
2016-02-23T02:46:03.065Z,63.64
2016-02-23T02:47:03.083Z,63.64
2016-02-23T02:48:03.071Z,63.64
2016-02-23T02:49:03.073Z,63.73
2016-02-23T02:50:03.075Z,64.12
2016-02-23T02:51:03.064Z,63.83
2016-02-23T02:52:03.066Z,64.02
2016-02-23T02:53:03.068Z,64.4
2016-02-23T02:54:03.087Z,64.12
2016-02-23T02:55:03.074Z,63.45
2016-02-23T02:56:03.077Z,63.73
2016-02-23T02:57:03.080Z,64.12
2016-02-23T02:58:03.082Z,64.21
2016-02-23T02:59:03.085Z,64.12
2016-02-23T03:00:03.088Z,64.4
2016-02-23T03:01:03.090Z,64.59
2016-02-23T03:02:03.093Z,64.59
2016-02-23T03:03:03.096Z,64.69
2016-02-23T03:04:03.099Z,64.21
2016-02-23T03:05:03.101Z,64.5
2016-02-23T03:06:03.104Z,64.4
2016-02-23T03:07:03.107Z,64.4
2016-02-23T03:08:02.952Z,64.87
2016-02-23T03:09:03.112Z,64.97
2016-02-23T03:10:03.114Z,65.16
2016-02-23T03:11:03.132Z,65.26
2016-02-23T03:12:03.119Z,64.97
2016-02-23T03:13:03.123Z,64.59
2016-02-23T03:14:03.125Z,64.97
2016-02-23T03:15:03.128Z,64.78
2016-02-23T03:16:03.115Z,64.87
2016-02-23T03:17:03.133Z,64.59
2016-02-23T03:18:03.167Z,64.87
2016-02-23T03:19:03.139Z,65.36
2016-02-23T03:20:03.141Z,65.36
2016-02-23T03:21:03.144Z,64.69
2016-02-23T03:22:03.131Z,65.07
2016-02-23T03:23:03.133Z,65.16
2016-02-23T03:24:03.153Z,64.97
2016-02-23T03:25:03.139Z,65.16
2016-02-23T03:26:03.141Z,64.87
2016-02-23T03:27:03.145Z,65.26
2016-02-23T03:28:03.147Z,64.97
2016-02-23T03:29:03.150Z,65.07
2016-02-23T03:30:03.136Z,65.36
2016-02-23T03:31:03.155Z,65.16
2016-02-23T03:32:03.157Z,65.07
2016-02-23T03:33:03.161Z,65.64
2016-02-23T03:34:03.147Z,65.73
2016-02-23T03:35:03.165Z,65.73
2016-02-23T03:36:03.153Z,65.36
2016-02-23T03:37:03.155Z,65.36
2016-02-23T03:38:03.158Z,65.73
2016-02-23T03:39:03.160Z,65.83
2016-02-23T03:40:03.163Z,65.64
2016-02-23T03:41:03.166Z,65.73
2016-02-23T03:42:03.169Z,65.64
2016-02-23T03:43:03.171Z,65.64
2016-02-23T03:44:03.174Z,66.31
2016-02-23T03:45:03.036Z,66.21
2016-02-23T03:46:03.180Z,66.4
2016-02-23T03:47:03.182Z,66.31
2016-02-23T03:48:03.044Z,66.31
2016-02-23T03:49:03.188Z,66.11
2016-02-23T03:50:03.190Z,66.5
2016-02-23T03:51:03.178Z,66.31
2016-02-23T03:52:03.196Z,66.02
2016-02-23T03:53:03.026Z,66.11
2016-02-23T03:54:03.186Z,66.4
2016-02-23T03:55:03.189Z,66.88
2016-02-23T03:56:03.191Z,67.45
2016-02-23T03:57:03.193Z,66.97
2016-02-23T03:58:03.197Z,66.97
2016-02-23T03:59:03.214Z,66.88
2016-02-23T04:00:03.202Z,66.4
2016-02-23T04:01:03.205Z,66.88
2016-02-23T04:02:03.207Z,66.69
2016-02-23T04:03:03.210Z,67.35
2016-02-23T04:04:03.213Z,67.26
2016-02-23T04:05:03.230Z,68.21
2016-02-23T04:06:03.218Z,67.64
2016-02-23T04:07:03.221Z,67.55
2016-02-23T04:08:03.223Z,67.45
2016-02-23T04:09:03.226Z,67.26
2016-02-23T04:10:03.229Z,67.45
2016-02-23T04:11:03.232Z,67.16
2016-02-23T04:12:03.234Z,67.26
2016-02-23T04:13:03.237Z,67.93
2016-02-23T04:14:03.240Z,68.21
2016-02-23T04:15:03.242Z,68.56
2016-02-23T04:16:03.260Z,68.78
2016-02-23T04:17:03.091Z,68.56
2016-02-23T04:18:03.250Z,68.21
2016-02-23T04:19:03.237Z,68.12
2016-02-23T04:20:03.240Z,68.78
2016-02-23T04:21:03.242Z,68.69
2016-02-23T04:22:03.245Z,69.07
2016-02-23T04:23:03.248Z,69.93
2016-02-23T04:24:03.281Z,69.07
2016-02-23T04:25:03.269Z,68.88
2016-02-23T04:26:03.256Z,68.46
2016-02-23T04:27:03.274Z,69.13
2016-02-23T04:28:03.278Z,69.7
2016-02-23T04:29:03.264Z,69.89
2016-02-23T04:30:03.266Z,69.04
2016-02-23T04:31:03.270Z,69.79
2016-02-23T04:32:03.288Z,69.42
2016-02-23T04:33:03.275Z,69.04
2016-02-23T04:34:03.278Z,69.42
2016-02-23T04:35:03.280Z,69.7
2016-02-23T04:36:03.283Z,69.89
2016-02-23T04:37:03.270Z,70.56
2016-02-23T04:38:03.288Z,70.27
2016-02-23T04:39:03.290Z,71.03
2016-02-23T04:40:03.277Z,70.56
2016-02-23T04:41:03.280Z,70.47
2016-02-23T04:42:03.283Z,70.37
2016-02-23T04:43:03.285Z,71.03
2016-02-23T04:44:03.288Z,71.22
2016-02-23T04:45:03.291Z,71.13
2016-02-23T04:46:03.294Z,70.56
2016-02-23T04:47:03.297Z,70.75
2016-02-23T04:48:03.299Z,70.56
2016-02-23T04:49:03.301Z,71.13
2016-02-23T04:50:03.305Z,71.8
2016-02-23T04:51:03.292Z,71.7
2016-02-23T04:52:03.309Z,71.51
2016-02-23T04:53:03.298Z,71.22
2016-02-23T04:54:03.300Z,71.61
2016-02-23T04:55:03.303Z,71.32
2016-02-23T04:56:03.321Z,71.8
2016-02-23T04:57:03.308Z,71.32
2016-02-23T04:58:03.311Z,71.13
2016-02-23T04:59:03.314Z,71.7
2016-02-23T05:00:03.316Z,71.32
2016-02-23T05:01:03.319Z,71.7
2016-02-23T05:02:03.305Z,72.37
2016-02-23T05:03:03.309Z,72.27
2016-02-23T05:04:03.311Z,72.17
2016-02-23T05:05:03.330Z,72.94
2016-02-23T05:06:03.316Z,72.17
2016-02-23T05:07:03.319Z,72.17
2016-02-23T05:08:03.322Z,72.08
2016-02-23T05:09:03.325Z,73.03
2016-02-23T05:10:03.343Z,73.22
2016-02-23T05:11:03.329Z,72.94
2016-02-23T05:12:03.333Z,73.51
2016-02-23T05:13:03.320Z,73.13
2016-02-23T05:14:03.323Z,74.08
2016-02-23T05:15:03.326Z,74.08
2016-02-23T05:16:03.328Z,73.89
2016-02-23T05:17:03.346Z,73.61
2016-02-23T05:18:03.334Z,74.37
2016-02-23T05:19:03.336Z,75.09
2016-02-23T05:20:03.339Z,75.28
2016-02-23T05:21:03.342Z,74.33
2016-02-23T05:22:03.344Z,74.18
2016-02-23T05:23:03.362Z,74.71
2016-02-23T05:24:03.334Z,75.19
2016-02-23T05:25:03.353Z,75.47
2016-02-23T05:26:03.339Z,75.85
2016-02-23T05:27:16.092Z,75.67
2016-02-23T05:28:03.375Z,75.67
2016-02-23T05:29:03.347Z,75.85
2016-02-23T05:30:03.350Z,76.04
2016-02-23T05:31:03.353Z,76.52
2016-02-23T05:32:03.339Z,76.33
2016-02-23T05:33:03.342Z,76.52
2016-02-23T05:34:03.361Z,76.33
2016-02-23T05:35:03.363Z,76.61
2016-02-23T05:36:03.366Z,77.09
2016-02-23T05:37:03.369Z,77.56
2016-02-23T05:38:03.372Z,77.47
2016-02-23T05:39:03.374Z,77.56
2016-02-23T05:40:03.377Z,77.66
2016-02-23T05:41:03.363Z,77.56
2016-02-23T05:42:03.367Z,77.37
2016-02-23T05:43:03.401Z,77.47
2016-02-23T05:44:03.372Z,78.04
2016-02-23T05:45:03.374Z,78.23
2016-02-23T05:46:03.377Z,78.71
2016-02-23T05:47:03.380Z,78.8
2016-02-23T05:48:03.382Z,79.57
2016-02-23T05:49:03.385Z,79.09
2016-02-23T05:50:16.123Z,79.09
2016-02-23T05:51:03.390Z,79.19
2016-02-23T05:52:03.394Z,79.19
2016-02-23T05:53:03.396Z,79.94
2016-02-23T05:54:03.398Z,79.57
2016-02-23T05:55:03.401Z,80.42
2016-02-23T05:56:03.404Z,80.8
2016-02-23T05:57:03.391Z,80.42
2016-02-23T05:58:03.409Z,79.62
2016-02-23T05:59:03.428Z,80.66
2016-02-23T06:00:03.399Z,82.57
2016-02-23T06:01:03.403Z,83.39
2016-02-23T06:02:03.405Z,84.14
2016-02-23T06:03:03.407Z,85.1
2016-02-23T06:04:03.394Z,85.24
2016-02-23T06:05:03.397Z,85.24
2016-02-23T06:06:03.400Z,85.34
2016-02-23T06:07:03.402Z,85.34
2016-02-23T06:08:16.139Z,86.19
2016-02-23T06:09:03.392Z,86.29
2016-02-23T06:10:03.411Z,86.86
2016-02-23T06:11:03.397Z,86.57
2016-02-23T06:12:03.400Z,86.76
2016-02-23T06:13:03.403Z,86.47
2016-02-23T06:14:03.421Z,86.05
2016-02-23T06:15:03.424Z,86.67
2016-02-23T06:16:03.427Z,86.72
2016-02-23T06:17:03.398Z,86.24
2016-02-23T06:18:03.402Z,86.91
2016-02-23T06:19:03.388Z,86.82
2016-02-23T06:20:03.407Z,86.82
2016-02-23T06:21:03.409Z,87.57
2016-02-23T06:22:03.396Z,87.01
2016-02-23T06:23:03.398Z,86.82
2016-02-23T06:24:03.386Z,87.1
2016-02-23T06:25:03.389Z,86.82
2016-02-23T06:26:16.125Z,87.48
2016-02-23T06:27:03.395Z,87.76
2016-02-23T06:28:03.397Z,88.05
2016-02-23T06:29:03.415Z,87.38
2016-02-23T06:30:03.386Z,87.38
2016-02-23T06:31:03.389Z,87.67
2016-02-23T06:32:03.392Z,87.24
2016-02-23T06:33:03.378Z,87.53
2016-02-23T06:34:03.381Z,87.72
2016-02-23T06:35:03.384Z,88.48
2016-02-23T06:36:03.387Z,88.67
2016-02-23T06:37:03.390Z,88.76
2016-02-23T06:38:03.377Z,88.95
2016-02-23T06:39:03.379Z,88.86
2016-02-23T06:40:03.397Z,89.43
2016-02-23T06:41:03.385Z,89.43
2016-02-23T06:42:16.106Z,90
2016-02-23T06:43:03.374Z,90.09
2016-02-23T06:44:03.393Z,89.53
2016-02-23T06:45:03.380Z,89.53
2016-02-23T06:46:03.366Z,88.95
2016-02-23T06:47:03.510Z,88.39
2016-02-23T06:48:03.372Z,87.62
2016-02-23T06:49:03.390Z,87.62
2016-02-23T06:50:03.362Z,88.01
2016-02-23T06:51:03.380Z,88.76
2016-02-23T06:52:03.367Z,88.01
2016-02-23T06:53:03.385Z,87.72
2016-02-23T06:54:16.107Z,87.72
2016-02-23T06:55:03.390Z,87.62
2016-02-23T06:56:03.363Z,88.57
2016-02-23T06:57:03.365Z,87.68
2016-02-23T06:58:03.383Z,87.3
2016-02-23T06:59:03.356Z,87.68
2016-02-23T07:00:03.358Z,87.96
2016-02-23T07:01:03.360Z,88.2
2016-02-23T07:02:03.347Z,87.82
2016-02-23T07:03:03.350Z,87.43
2016-02-23T07:04:03.353Z,88.01
2016-02-23T07:05:03.340Z,87.53
2016-02-23T07:06:02.608Z,87.62
2016-02-23T07:07:16.080Z,87.53
2016-02-23T07:08:03.347Z,88.01
2016-02-23T07:09:03.351Z,87.62
2016-02-23T07:10:03.338Z,87.72
2016-02-23T07:11:03.340Z,87.87
2016-02-23T07:12:03.343Z,87.53
2016-02-23T07:13:03.346Z,88.15
2016-02-23T07:14:03.333Z,88.43
2016-02-23T07:15:03.335Z,87.96
2016-02-23T07:16:03.338Z,88.06
2016-02-23T07:17:03.325Z,87.87
2016-02-23T07:18:03.327Z,88.53
2016-02-23T07:19:03.330Z,87.68
2016-02-23T07:20:03.318Z,88.43
2016-02-23T07:21:03.335Z,89.58
2016-02-23T07:22:03.339Z,88.81
2016-02-23T07:23:03.326Z,88.81
2016-02-23T07:24:03.328Z,88.43
2016-02-23T07:25:03.346Z,88.62
2016-02-23T07:26:03.318Z,88.62
2016-02-23T07:27:16.086Z,88.06
2016-02-23T07:28:03.308Z,88.81
2016-02-23T07:29:03.326Z,89.1
2016-02-23T07:30:03.314Z,88.62
2016-02-23T07:31:03.317Z,88.53
2016-02-23T07:32:03.320Z,88.29
2016-02-23T07:33:03.322Z,87.91
2016-02-23T07:34:03.308Z,87.91
2016-02-23T07:35:03.312Z,88.06
2016-02-23T07:36:03.345Z,88.53
2016-02-23T07:37:03.301Z,88.81
2016-02-23T07:38:03.303Z,88.48
2016-02-23T07:39:03.306Z,88.29
2016-02-23T07:40:03.309Z,88.39
2016-02-23T07:41:03.312Z,88.86
2016-02-23T07:42:03.299Z,88.24
2016-02-23T07:43:03.302Z,89.39
2016-02-23T07:44:03.289Z,89.1
2016-02-23T07:45:03.291Z,89.67
2016-02-23T07:46:03.293Z,89.39
2016-02-23T07:47:03.296Z,89.95
2016-02-23T07:48:03.300Z,89.39
2016-02-23T07:49:16.036Z,89.43
2016-02-23T07:50:03.289Z,89.76
2016-02-23T07:51:03.307Z,89.67
2016-02-23T07:52:03.279Z,89.67
2016-02-23T07:53:03.297Z,89.48
2016-02-23T07:54:03.284Z,89.72
2016-02-23T07:55:03.287Z,89.95
2016-02-23T07:56:16.009Z,89.76
2016-02-23T07:57:03.277Z,89.24
2016-02-23T07:58:03.279Z,89.67
2016-02-23T07:59:03.282Z,89.58
2016-02-23T08:00:03.285Z,89.72
2016-02-23T08:01:03.272Z,89.86
2016-02-23T08:02:03.290Z,89.58
2016-02-23T08:03:03.278Z,89.86
2016-02-23T08:04:03.264Z,90.33
2016-02-23T08:05:03.266Z,90.09
2016-02-23T08:06:03.316Z,90.24
2016-02-23T08:07:03.256Z,90.24
2016-02-23T08:08:03.259Z,90.43
2016-02-23T08:09:03.262Z,89.48
2016-02-23T08:10:03.280Z,90.24
2016-02-23T08:11:03.252Z,90.62
2016-02-23T08:12:03.286Z,90.71
2016-02-23T08:13:03.257Z,89.95
2016-02-23T08:14:03.260Z,90.24
2016-02-23T08:15:03.262Z,89.86
2016-02-23T08:16:15.983Z,90.24
2016-02-23T08:17:03.252Z,89.95
2016-02-23T08:18:03.255Z,90.62
2016-02-23T08:19:03.258Z,91.09
2016-02-23T08:20:03.244Z,91.09
2016-02-23T08:21:03.247Z,91.19
2016-02-23T08:22:03.266Z,90.81
2016-02-23T08:23:03.237Z,90.9
2016-02-23T08:24:03.240Z,91.66
2016-02-23T08:25:03.258Z,91.09
2016-02-23T08:26:03.229Z,91
2016-02-23T08:27:03.248Z,89.86
2016-02-23T08:28:03.234Z,89.76
2016-02-23T08:29:03.238Z,89.39
2016-02-23T08:30:03.240Z,88.34
2016-02-23T08:31:03.228Z,88.43
2016-02-23T08:32:03.230Z,89.39
2016-02-23T08:33:03.234Z,89.67
2016-02-23T08:34:03.220Z,88.72
2016-02-23T08:35:03.222Z,88.34
2016-02-23T08:36:03.226Z,88.91
2016-02-23T08:37:03.212Z,88.34
2016-02-23T08:38:03.231Z,89.67
2016-02-23T08:39:03.217Z,89.48
2016-02-23T08:40:15.939Z,90.14
2016-02-23T08:41:03.239Z,90.14
2016-02-23T08:42:03.211Z,90.62
2016-02-23T08:43:03.213Z,90.81
2016-02-23T08:44:03.216Z,89.67
2016-02-23T08:45:03.203Z,89
2016-02-23T08:46:03.205Z,89.48
2016-02-23T08:47:03.192Z,90.24
2016-02-23T08:48:03.211Z,89.2
2016-02-23T08:49:09.666Z,89.39
2016-02-23T08:50:03.200Z,89.67
2016-02-23T08:51:03.202Z,89.58
2016-02-23T08:52:03.190Z,89.29
2016-02-23T08:53:03.208Z,89
2016-02-23T08:54:03.196Z,89.67
2016-02-23T08:55:03.182Z,89.48
2016-02-23T08:56:03.201Z,89.76
2016-02-23T08:57:03.188Z,89.48
2016-02-23T08:58:03.018Z,88.53
2016-02-23T08:59:03.209Z,88.43
2016-02-23T09:00:03.181Z,87.39
2016-02-23T09:01:03.203Z,89.48
2016-02-23T09:02:03.175Z,89.39
2016-02-23T09:03:15.912Z,88.72
2016-02-23T09:04:03.181Z,88.81
2016-02-23T09:05:03.172Z,89.39
2016-02-23T09:06:03.175Z,89.2
2016-02-23T09:07:03.178Z,88.72
2016-02-23T09:08:03.165Z,89.29
2016-02-23T09:09:03.167Z,88.72
2016-02-23T09:10:03.155Z,88.24
2016-02-23T09:11:03.158Z,89
2016-02-23T09:12:03.176Z,89.39
2016-02-23T09:13:03.163Z,89.76
2016-02-23T09:14:03.150Z,89
2016-02-23T09:15:03.153Z,89.2
2016-02-23T09:16:03.155Z,88.53
2016-02-23T09:17:03.158Z,88.62
2016-02-23T09:18:03.161Z,88.15
2016-02-23T09:19:03.148Z,89.34
2016-02-23T09:20:03.151Z,89
2016-02-23T09:21:03.138Z,89.48
2016-02-23T09:22:03.140Z,88.62
2016-02-23T09:23:03.143Z,88.81
2016-02-23T09:24:03.130Z,89.06
2016-02-23T09:25:03.133Z,88.62
2016-02-23T09:26:03.135Z,89.29
2016-02-23T09:27:03.138Z,89.2
2016-02-23T09:28:03.120Z,89.39
2016-02-23T09:29:03.110Z,88.53
2016-02-23T09:30:03.115Z,88.24
2016-02-23T09:31:03.090Z,88.91
2016-02-23T09:32:03.064Z,89.58
2016-02-23T09:33:03.058Z,88.62
2016-02-23T09:34:03.072Z,87.68
2016-02-23T09:35:03.038Z,86.91
2016-02-23T09:36:03.035Z,87.3
2016-02-23T09:37:03.034Z,87.77
2016-02-23T09:38:15.752Z,87.68
2016-02-23T09:39:03.019Z,87.49
2016-02-23T09:40:03.020Z,86.63
2016-02-23T09:41:03.020Z,86.35
2016-02-23T09:42:03.022Z,86.63
2016-02-23T09:43:03.023Z,86.82
2016-02-23T09:44:03.025Z,87.49
2016-02-23T09:45:03.012Z,87.77
2016-02-23T09:46:03.014Z,86.63
2016-02-23T09:47:03.016Z,85.11
2016-02-23T09:48:03.003Z,85.02
2016-02-23T09:49:03.006Z,83.88
2016-02-23T09:50:03.008Z,85.02
2016-02-23T09:51:03.025Z,86.44
2016-02-23T09:52:03.013Z,86.82
2016-02-23T09:53:03.015Z,86.82
2016-02-23T09:54:03.002Z,86.44
2016-02-23T09:55:03.005Z,85.3
2016-02-23T09:56:02.989Z,85.11
2016-02-23T09:57:03.026Z,84.74
2016-02-23T09:58:02.994Z,85.4
2016-02-23T09:59:02.982Z,85.11
2016-02-23T10:00:02.984Z,84.64
2016-02-23T10:01:02.987Z,85.21
2016-02-23T10:02:02.974Z,86.25
2016-02-23T10:03:02.977Z,87.01
2016-02-23T10:04:02.979Z,86.63
2016-02-23T10:05:02.982Z,85.78
2016-02-23T10:06:02.969Z,86.16
2016-02-23T10:07:02.971Z,86.82
2016-02-23T10:08:02.959Z,86.44
2016-02-23T10:09:02.993Z,86.63
2016-02-23T10:10:02.964Z,86.63
2016-02-23T10:11:15.704Z,86.16
2016-02-23T10:12:02.970Z,85.87
2016-02-23T10:13:02.956Z,84.55
2016-02-23T10:14:02.959Z,84.55
2016-02-23T10:15:02.962Z,83.97
2016-02-23T10:16:02.965Z,85.4
2016-02-23T10:17:02.967Z,85.87
2016-02-23T10:18:02.955Z,84.92
2016-02-23T10:19:02.958Z,84.55
2016-02-23T10:20:02.975Z,85.21
2016-02-23T10:21:02.947Z,85.97
2016-02-23T10:22:02.949Z,86.16
2016-02-23T10:23:02.953Z,86.72
2016-02-23T10:24:02.955Z,85.87
2016-02-23T10:25:02.958Z,84.92
2016-02-23T10:26:02.944Z,82.93
2016-02-23T10:27:02.963Z,84.07
2016-02-23T10:28:15.687Z,84.45
2016-02-23T10:29:02.937Z,84.88
2016-02-23T10:30:02.940Z,85.11
2016-02-23T10:31:02.958Z,85.02
2016-02-23T10:32:02.945Z,83.97
2016-02-23T10:33:02.932Z,84.07
2016-02-23T10:34:02.935Z,84.64
2016-02-23T10:35:02.938Z,85.4
2016-02-23T10:36:02.940Z,84.07
2016-02-23T10:37:02.943Z,84.22
2016-02-23T10:38:15.683Z,84.22
2016-02-23T10:39:02.933Z,84.88
2016-02-23T10:40:02.920Z,84.88
2016-02-23T10:41:02.938Z,85.07
2016-02-23T10:42:02.926Z,84.78
2016-02-23T10:43:02.943Z,85.64
2016-02-23T10:44:02.931Z,86.68
2016-02-23T10:45:02.933Z,85.83
2016-02-23T10:46:02.936Z,85.17
2016-02-23T10:47:02.923Z,85.55
2016-02-23T10:48:02.957Z,85.07
2016-02-23T10:49:02.913Z,85.55
2016-02-23T10:50:02.916Z,86.4
2016-02-23T10:51:02.950Z,86.02
2016-02-23T10:52:02.905Z,85.07
2016-02-23T10:53:02.908Z,85.17
2016-02-23T10:54:02.911Z,85.17
2016-02-23T10:55:02.897Z,84.31
2016-02-23T10:56:02.916Z,84.98
2016-02-23T10:57:02.903Z,84.03
2016-02-23T10:58:02.906Z,84.03
2016-02-23T10:59:02.894Z,85.07
2016-02-23T11:00:15.632Z,83.94
2016-02-23T11:01:02.898Z,84.03
2016-02-23T11:02:02.902Z,84.31
2016-02-23T11:03:02.888Z,83.27
2016-02-23T11:04:02.890Z,83.94
2016-02-23T11:05:02.877Z,85.07
2016-02-23T11:06:02.880Z,84.98
2016-02-23T11:07:02.899Z,84.22
2016-02-23T11:08:02.902Z,84.03
2016-02-23T11:09:02.888Z,84.17
2016-02-23T11:10:02.891Z,84.74
2016-02-23T11:11:02.863Z,85.97
2016-02-23T11:12:02.882Z,85.78
2016-02-23T11:13:02.868Z,85.13
2016-02-23T11:14:02.871Z,85.03
2016-02-23T11:15:02.858Z,86.07
2016-02-23T11:16:02.861Z,85.97
2016-02-23T11:17:02.863Z,85.6
2016-02-23T11:18:02.850Z,85.03
2016-02-23T11:19:02.853Z,84.84
2016-02-23T11:20:02.856Z,85.13
2016-02-23T11:21:02.842Z,86.74
2016-02-23T11:22:02.845Z,86.45
2016-02-23T11:23:02.848Z,86.74
2016-02-23T11:24:02.835Z,86.26
2016-02-23T11:25:02.838Z,85.88
2016-02-23T11:26:02.841Z,86.07
2016-02-23T11:27:02.828Z,86.07
2016-02-23T11:28:02.830Z,86.16
2016-02-23T11:29:02.833Z,84.84
2016-02-23T11:30:02.836Z,85.69
2016-02-23T11:31:02.822Z,85.97
2016-02-23T11:32:15.563Z,85.97
2016-02-23T11:33:02.813Z,86.64
2016-02-23T11:34:02.816Z,86.55
2016-02-23T11:35:02.818Z,85.5
2016-02-23T11:36:02.805Z,85.03
2016-02-23T11:37:02.807Z,85.69
2016-02-23T11:38:02.811Z,85.88
2016-02-23T11:39:02.813Z,85.88
2016-02-23T11:40:02.816Z,86.41
2016-02-23T11:41:02.803Z,85.46
2016-02-23T11:42:02.806Z,86.12
2016-02-23T11:43:02.808Z,87.83
2016-02-23T11:44:02.795Z,87.35
2016-02-23T11:45:03.190Z,88.11
2016-02-23T11:46:02.785Z,88.49
2016-02-23T11:47:02.788Z,87.45
2016-02-23T11:48:02.775Z,87.83
2016-02-23T11:49:02.778Z,87.73
2016-02-23T11:50:02.780Z,87.92
2016-02-23T11:51:02.767Z,89.63
2016-02-23T11:52:02.769Z,89.72
2016-02-23T11:53:02.903Z,88.78
2016-02-23T11:54:02.840Z,88.3
2016-02-23T11:55:02.780Z,88.87
2016-02-23T11:56:15.534Z,88.3
2016-02-23T11:57:03.060Z,88.4
2016-02-23T11:58:02.626Z,87.92
2016-02-23T11:59:02.738Z,87.64
2016-02-23T12:00:02.756Z,88.11
2016-02-23T12:01:02.743Z,88.68
2016-02-23T12:02:02.746Z,89.72
2016-02-23T12:03:02.734Z,89.44
2016-02-23T12:04:02.736Z,89.25
2016-02-23T12:05:02.739Z,90.1
2016-02-23T12:06:02.731Z,88.4
2016-02-23T12:07:02.715Z,88.21
2016-02-23T12:08:02.749Z,87.35
2016-02-23T12:09:02.705Z,87.45
2016-02-23T12:10:02.722Z,87.73
2016-02-23T12:11:15.444Z,87.45
2016-02-23T12:12:02.696Z,87.73
2016-02-23T12:13:02.699Z,87.92
2016-02-23T12:14:02.702Z,88.11
2016-02-23T12:15:02.704Z,87.64
2016-02-23T12:16:02.691Z,87.45
2016-02-23T12:17:02.679Z,87.26
2016-02-23T12:18:02.681Z,87.54
2016-02-23T12:19:02.685Z,87.73
2016-02-23T12:20:02.688Z,87.92
2016-02-23T12:21:02.690Z,87.92
2016-02-23T12:22:02.677Z,87.73
2016-02-23T12:23:02.679Z,88.4
2016-02-23T12:24:02.667Z,88.59
2016-02-23T12:25:02.684Z,89.3
2016-02-23T12:26:02.657Z,88.59
2016-02-23T12:27:02.660Z,89.44
2016-02-23T12:28:02.646Z,88.11
2016-02-23T12:29:02.649Z,87.98
2016-02-23T12:30:02.651Z,88.35
2016-02-23T12:31:02.639Z,88.64
2016-02-23T12:32:02.642Z,88.54
2016-02-23T12:33:02.629Z,88.17
2016-02-23T12:34:02.631Z,88.26
2016-02-23T12:35:02.618Z,88.92
2016-02-23T12:36:02.620Z,88.92
2016-02-23T12:37:02.623Z,89.49
2016-02-23T12:38:02.625Z,89.01
2016-02-23T12:39:02.598Z,89.68
2016-02-23T12:40:02.632Z,89.39
2016-02-23T12:41:02.603Z,89.3
2016-02-23T12:42:15.341Z,89.77
2016-02-23T12:43:02.608Z,89.49
2016-02-23T12:44:02.596Z,88.45
2016-02-23T12:45:02.599Z,88.35
2016-02-23T12:46:02.585Z,88.73
2016-02-23T12:47:02.571Z,88.92
2016-02-23T12:48:02.575Z,89.11
2016-02-23T12:49:02.578Z,89.2
2016-02-23T12:50:02.565Z,90.34
2016-02-23T12:51:02.568Z,90.53
2016-02-23T12:52:15.304Z,91.19
2016-02-23T12:53:02.558Z,91.48
2016-02-23T12:54:02.560Z,90.81
2016-02-23T12:55:02.563Z,90.15